Bw Havfrost — LAMR4 — position and weather

sailwx.info

Track history (hours):
 
Tides and Currents Weather Stations Pressure Air Temp Water Temp Dewpoint Dewpoint Depression Visibility Wind Speed Wind Dir Waves Ship Positions

Bw Havfrost

Last reported at 2016-May-05 21:32 UTC. Time now 2016-Jul-30 11:09 UTC.
Position N 01°59' E 102°15'.
Warning: this ship's position is months out of date.

Length 205 m; draft 7.5 m.

Type: Ship (hazmat cat C). MMSI: 257631000.

Date/timePositionNaut miles runAvg speedWind from/ knotsBaromVisibWave heightAir tempDewpointWater temp
2016-May-05 21:32N 01°59' E 102°15'1515.0
2016-May-05 20:33N 01°51' E 102°28'1616.3
2016-May-05 19:33N 01°45' E 102°43'6115.2
2016-May-05 15:33N 01°12' E 103°34'7 7.3
2016-May-05 14:33N 01°11' E 103°41'2 1.4
2016-May-05 13:29N 01°11' E 103°43'0 0.0
2016-May-05 12:33N 01°11' E 103°43'0 0.2
2016-May-05 11:21N 01°11' E 103°43'0 0.0
2016-May-05 10:18N 01°11' E 103°43'0 0.0
2016-May-05 09:24N 01°11' E 103°43'0 0.0
2016-May-05 08:30N 01°11' E 103°43'0 0.1
2016-May-05 07:27N 01°11' E 103°43'0 0.0
2016-May-05 06:18N 01°11' E 103°43'0 0.2
2016-May-05 05:33N 01°11' E 103°43'0 0.1
2016-May-05 04:21N 01°11' E 103°43'0 0.0
2016-May-05 03:30N 01°11' E 103°43'0 0.1
2016-May-05 02:30N 01°11' E 103°43'0 0.0
2016-May-05 01:33N 01°11' E 103°43'0 0.1
2016-May-05 00:33N 01°11' E 103°43'0 0.1
2016-May-04 23:33N 01°11' E 103°43'0 0.0
2016-May-04 22:30N 01°11' E 103°43'0 0.0
2016-May-04 21:30N 01°11' E 103°43'0 0.1
2016-May-04 20:30N 01°11' E 103°43'0 0.1
2016-May-04 19:33N 01°11' E 103°43'0 0.1
2016-May-04 18:30N 01°11' E 103°43'0 0.1
2016-May-04 17:30N 01°11' E 103°43'0 0.2
2016-May-04 16:24N 01°11' E 103°43'0 0.1
2016-May-04 15:33N 01°11' E 103°43'2 1.9
2016-May-04 14:33N 01°09' E 103°44'6 5.9
2016-May-04 13:33N 01°11' E 103°49'9 8.8
2016-May-04 12:33N 01°15' E 103°57'  
Track history (hours):
 
Tides and Currents Weather Stations Pressure Air Temp Water Temp Dewpoint Dewpoint Depression Visibility Wind Speed Wind Dir Waves Ship Positions

Bw Havfrost

Last reported at 2016-May-05 21:32 UTC. Time now 2016-Jul-30 11:09 UTC.
Position N 01°59' E 102°15'.
Warning: this ship's position is months out of date.

Length 205 m; draft 7.5 m.

Type: Ship (hazmat cat C). MMSI: 257631000.

Date/timePositionNaut miles runAvg speedWind from/ knotsBaromVisibWave heightAir tempDewpointWater temp
2016-May-05 21:32N 01°59' E 102°15'1515.0
2016-May-05 20:33N 01°51' E 102°28'1616.3
2016-May-05 19:33N 01°45' E 102°43'6115.2
2016-May-05 15:33N 01°12' E 103°34'7 7.3
2016-May-05 14:33N 01°11' E 103°41'2 1.4
2016-May-05 13:29N 01°11' E 103°43'0 0.0
2016-May-05 12:33N 01°11' E 103°43'0 0.2
2016-May-05 11:21N 01°11' E 103°43'0 0.0
2016-May-05 10:18N 01°11' E 103°43'0 0.0
2016-May-05 09:24N 01°11' E 103°43'0 0.0
2016-May-05 08:30N 01°11' E 103°43'0 0.1
2016-May-05 07:27N 01°11' E 103°43'0 0.0
2016-May-05 06:18N 01°11' E 103°43'0 0.2
2016-May-05 05:33N 01°11' E 103°43'0 0.1
2016-May-05 04:21N 01°11' E 103°43'0 0.0
2016-May-05 03:30N 01°11' E 103°43'0 0.1
2016-May-05 02:30N 01°11' E 103°43'0 0.0
2016-May-05 01:33N 01°11' E 103°43'0 0.1
2016-May-05 00:33N 01°11' E 103°43'0 0.1
2016-May-04 23:33N 01°11' E 103°43'0 0.0
2016-May-04 22:30N 01°11' E 103°43'0 0.0
2016-May-04 21:30N 01°11' E 103°43'0 0.1
2016-May-04 20:30N 01°11' E 103°43'0 0.1
2016-May-04 19:33N 01°11' E 103°43'0 0.1
2016-May-04 18:30N 01°11' E 103°43'0 0.1
2016-May-04 17:30N 01°11' E 103°43'0 0.2
2016-May-04 16:24N 01°11' E 103°43'0 0.1
2016-May-04 15:33N 01°11' E 103°43'2 1.9
2016-May-04 14:33N 01°09' E 103°44'6 5.9
2016-May-04 13:33N 01°11' E 103°49'9 8.8
2016-May-04 12:33N 01°15' E 103°57'  

Dump ship's entire track history